createdAt,value
2023-05-11T00:00:51.911Z,14.45
2023-05-11T00:03:18.812Z,14.81
2023-05-11T00:05:49.078Z,14.90
2023-05-11T00:08:17.390Z,14.89
2023-05-11T00:10:47.757Z,14.65
2023-05-11T00:13:14.644Z,14.88
2023-05-11T00:15:41.325Z,14.95
2023-05-11T00:18:07.906Z,14.80
2023-05-11T00:20:34.535Z,14.89
2023-05-11T00:23:01.306Z,14.79
2023-05-11T00:25:27.869Z,14.62
2023-05-11T00:27:54.524Z,14.66
2023-05-11T00:30:21.263Z,14.69
2023-05-11T00:32:49.206Z,14.61
2023-05-11T00:35:15.960Z,14.64
2023-05-11T00:37:42.532Z,14.62
2023-05-11T00:40:09.446Z,14.39
2023-05-11T00:42:36.268Z,14.59
2023-05-11T00:45:03.213Z,14.25
2023-05-11T00:47:30.358Z,14.62
2023-05-11T00:49:58.391Z,14.68
2023-05-11T00:52:25.275Z,14.70
2023-05-11T00:54:51.852Z,14.47
2023-05-11T00:57:18.753Z,14.75
2023-05-11T00:59:45.365Z,14.82
2023-05-11T01:02:12.061Z,14.78
2023-05-11T01:04:39.072Z,14.82
2023-05-11T01:07:24.267Z,14.84
2023-05-11T01:10:19.883Z,14.74
2023-05-11T01:13:14.848Z,14.70
2023-05-11T01:15:56.720Z,14.49
2023-05-11T01:18:35.111Z,14.26
2023-05-11T01:21:02.867Z,14.24
2023-05-11T01:23:49.996Z,14.53
2023-05-11T01:26:44.235Z,14.48
2023-05-11T01:29:10.904Z,14.62
2023-05-11T01:31:42.470Z,14.37
2023-05-11T01:34:17.118Z,14.59
2023-05-11T01:36:49.614Z,14.49
2023-05-11T01:39:21.011Z,14.56
2023-05-11T01:41:53.972Z,14.60
2023-05-11T01:44:25.891Z,14.53
2023-05-11T01:46:53.478Z,14.61
2023-05-11T01:49:21.876Z,14.51
2023-05-11T01:51:51.670Z,14.54
2023-05-11T01:54:19.568Z,14.22
2023-05-11T01:56:46.333Z,14.55
2023-05-11T01:59:14.481Z,14.60
2023-05-11T02:01:41.577Z,14.47
2023-05-11T02:04:09.904Z,14.46
2023-05-11T02:06:38.302Z,14.43
2023-05-11T02:09:07.798Z,14.40
2023-05-11T02:11:35.468Z,14.48
2023-05-11T02:14:05.289Z,14.35
2023-05-11T02:16:33.447Z,14.35
2023-05-11T02:19:00.563Z,14.48
2023-05-11T02:21:28.531Z,14.04
2023-05-11T02:23:56.786Z,14.33
2023-05-11T02:26:23.840Z,14.37
2023-05-11T02:28:50.659Z,14.33
2023-05-11T02:31:21.408Z,14.31
2023-05-11T02:33:52.419Z,14.35
2023-05-11T02:36:22.490Z,14.35
2023-05-11T02:38:54.967Z,14.32
2023-05-11T02:41:27.869Z,14.45
2023-05-11T02:43:56.994Z,14.49
2023-05-11T02:46:28.633Z,14.46
2023-05-11T02:48:58.280Z,14.41
2023-05-11T02:51:33.256Z,14.18
2023-05-11T02:54:01.709Z,14.14
2023-05-11T02:56:29.928Z,14.47
2023-05-11T02:58:56.601Z,14.47
2023-05-11T03:01:23.878Z,14.33
2023-05-11T03:03:50.836Z,14.52
2023-05-11T03:06:17.459Z,14.50
2023-05-11T03:08:44.142Z,14.28
2023-05-11T03:11:12.705Z,14.54
2023-05-11T03:13:39.505Z,14.11
2023-05-11T03:16:07.893Z,14.43
2023-05-11T03:18:36.357Z,14.40
2023-05-11T03:21:03.069Z,14.39
2023-05-11T03:23:30.783Z,14.22
2023-05-11T03:25:59.470Z,14.41
2023-05-11T03:28:28.118Z,14.07
2023-05-11T03:30:54.915Z,14.35
2023-05-11T03:33:21.847Z,14.27
2023-05-11T03:35:51.082Z,14.32
2023-05-11T03:38:21.407Z,14.36
2023-05-11T03:40:49.536Z,14.25
2023-05-11T03:43:19.396Z,14.03
2023-05-11T03:45:48.192Z,14.25
2023-05-11T03:48:16.799Z,14.40
2023-05-11T03:50:44.251Z,14.34
2023-05-11T03:53:11.907Z,14.26
2023-05-11T03:55:38.572Z,14.07
2023-05-11T03:58:09.768Z,13.98
2023-05-11T04:00:40.668Z,14.41
2023-05-11T04:03:09.522Z,14.44
2023-05-11T04:05:36.338Z,14.30
2023-05-11T04:08:03.844Z,14.32
2023-05-11T04:10:30.552Z,14.35
2023-05-11T04:12:57.413Z,14.36
2023-05-11T04:15:24.093Z,14.35
2023-05-11T04:17:50.700Z,14.01
2023-05-11T04:20:17.525Z,14.22
2023-05-11T04:22:44.568Z,14.54
2023-05-11T04:25:11.590Z,14.61
2023-05-11T04:27:38.204Z,14.57
2023-05-11T04:30:05.902Z,14.30
2023-05-11T04:32:32.649Z,14.49
2023-05-11T04:34:59.513Z,14.49
2023-05-11T04:37:26.430Z,14.36
2023-05-11T04:39:52.976Z,14.50
2023-05-11T04:42:19.573Z,14.51
2023-05-11T04:44:46.124Z,14.59
2023-05-11T04:47:12.701Z,14.69
2023-05-11T04:49:39.764Z,14.72
2023-05-11T04:52:06.561Z,14.27
2023-05-11T04:54:33.328Z,14.71
2023-05-11T04:56:59.987Z,14.66
2023-05-11T04:59:26.533Z,14.72
2023-05-11T05:01:53.114Z,14.30
2023-05-11T05:04:19.993Z,14.68
2023-05-11T05:06:46.686Z,14.66
2023-05-11T05:09:13.257Z,14.27
2023-05-11T05:11:39.857Z,14.41
2023-05-11T05:14:06.593Z,14.70
2023-05-11T05:16:33.256Z,14.71
2023-05-11T05:18:59.883Z,14.81
2023-05-11T05:21:26.799Z,14.92
2023-05-11T05:23:53.413Z,15.04
2023-05-11T05:26:20.053Z,15.12
2023-05-11T05:28:46.609Z,14.85
2023-05-11T05:31:13.284Z,14.80
2023-05-11T05:33:39.965Z,15.10
2023-05-11T05:36:08.414Z,14.74
2023-05-11T05:38:34.954Z,15.12
2023-05-11T05:41:05.355Z,15.17
2023-05-11T05:43:32.078Z,14.93
2023-05-11T05:45:58.752Z,15.04
2023-05-11T05:48:25.469Z,14.76
2023-05-11T05:50:52.350Z,14.99
2023-05-11T05:53:18.963Z,15.31
2023-05-11T05:55:45.544Z,15.35
2023-05-11T05:58:12.755Z,15.25
2023-05-11T06:00:39.401Z,14.71
2023-05-11T06:03:06.342Z,15.22
2023-05-11T06:05:33.019Z,14.90
2023-05-11T06:08:09.704Z,15.17
2023-05-11T06:10:37.213Z,15.23
2023-05-11T06:13:03.839Z,14.83
2023-05-11T06:15:30.683Z,15.21
2023-05-11T06:17:57.314Z,15.35
2023-05-11T06:20:24.404Z,15.60
2023-05-11T06:22:51.151Z,15.64
2023-05-11T06:25:17.903Z,15.43
2023-05-11T06:27:44.466Z,15.45
2023-05-11T06:30:11.446Z,15.26
2023-05-11T06:32:38.160Z,15.68
2023-05-11T06:35:05.316Z,15.73
2023-05-11T06:37:32.237Z,15.74
2023-05-11T06:39:59.359Z,15.87
2023-05-11T06:42:26.084Z,15.85
2023-05-11T06:44:52.701Z,15.73
2023-05-11T06:47:19.351Z,15.94
2023-05-11T06:49:45.905Z,16.08
2023-05-11T06:52:12.574Z,16.16
2023-05-11T06:54:39.206Z,16.12
2023-05-11T06:57:06.126Z,16.35
2023-05-11T06:59:32.696Z,16.05
2023-05-11T07:01:59.461Z,15.89
2023-05-11T07:04:26.289Z,16.29
2023-05-11T07:06:53.499Z,16.19
2023-05-11T07:09:20.113Z,16.32
2023-05-11T07:11:46.848Z,16.69
2023-05-11T07:14:13.440Z,16.18
2023-05-11T07:16:40.355Z,16.80
2023-05-11T07:19:08.696Z,16.75
2023-05-11T07:21:36.425Z,16.59
2023-05-11T07:24:04.078Z,16.67
2023-05-11T07:26:30.878Z,16.62
2023-05-11T07:28:57.473Z,16.55
2023-05-11T07:31:24.115Z,16.40
2023-05-11T07:33:50.862Z,16.62
2023-05-11T07:36:17.554Z,16.89
2023-05-11T07:38:44.245Z,16.98
2023-05-11T07:41:12.594Z,16.87
2023-05-11T07:43:39.450Z,16.62
2023-05-11T07:46:06.221Z,17.04
2023-05-11T07:48:32.949Z,16.73
2023-05-11T07:50:59.746Z,16.76
2023-05-11T07:53:26.376Z,16.78
2023-05-11T07:55:52.971Z,16.72
2023-05-11T07:58:19.579Z,16.77
2023-05-11T08:00:46.249Z,16.74
2023-05-11T08:03:13.332Z,16.94
2023-05-11T08:05:40.158Z,17.13
2023-05-11T08:08:06.805Z,17.03
2023-05-11T08:10:33.501Z,17.22
2023-05-11T08:13:00.299Z,16.99
2023-05-11T08:15:27.183Z,17.27
2023-05-11T08:17:54.247Z,17.36
2023-05-11T08:20:21.209Z,17.45
2023-05-11T08:22:47.836Z,17.40
2023-05-11T08:25:14.710Z,17.58
2023-05-11T08:27:41.314Z,17.50
2023-05-11T08:30:11.777Z,17.51
2023-05-11T08:32:57.160Z,17.38
2023-05-11T08:35:25.370Z,17.42
2023-05-11T08:37:52.112Z,17.30
2023-05-11T08:40:20.298Z,17.48
2023-05-11T08:42:48.933Z,17.45
2023-05-11T08:45:17.059Z,17.31
2023-05-11T08:47:45.319Z,17.26
2023-05-11T08:50:12.295Z,17.23
2023-05-11T08:52:38.986Z,17.29
2023-05-11T08:55:06.130Z,16.89
2023-05-11T08:57:35.333Z,17.08
2023-05-11T09:00:03.265Z,17.09
2023-05-11T09:02:31.158Z,16.60
2023-05-11T09:04:59.614Z,16.80
2023-05-11T09:07:27.095Z,16.71
2023-05-11T09:09:53.738Z,16.82
2023-05-11T09:12:20.813Z,16.80
2023-05-11T09:14:47.766Z,16.68
2023-05-11T09:17:14.704Z,16.84
2023-05-11T09:20:01.975Z,16.81
2023-05-11T09:22:31.045Z,16.72
2023-05-11T09:24:59.833Z,16.50
2023-05-11T09:27:26.402Z,16.52
2023-05-11T09:29:55.803Z,16.55
2023-05-11T09:32:22.583Z,16.36
2023-05-11T09:34:49.404Z,16.43
2023-05-11T09:37:19.647Z,16.69
2023-05-11T09:40:17.762Z,16.55
2023-05-11T09:42:32.925Z,16.48
2023-05-11T09:44:59.533Z,16.72
2023-05-11T09:47:27.727Z,16.42
2023-05-11T09:49:54.396Z,16.62
2023-05-11T09:52:21.331Z,16.62
2023-05-11T09:54:51.323Z,16.43
2023-05-11T09:57:29.540Z,16.34
2023-05-11T09:59:57.741Z,16.36
2023-05-11T10:02:25.529Z,16.54
2023-05-11T10:04:54.556Z,16.65
2023-05-11T10:07:24.642Z,16.91
2023-05-11T10:09:54.239Z,17.07
2023-05-11T10:12:24.068Z,17.10
2023-05-11T10:14:52.885Z,17.34
2023-05-11T10:17:20.249Z,17.28
2023-05-11T10:19:47.882Z,17.69
2023-05-11T10:22:16.197Z,17.69
2023-05-11T10:24:43.102Z,17.70
2023-05-11T10:27:12.356Z,17.89
2023-05-11T10:29:39.603Z,18.01
2023-05-11T10:32:08.209Z,18.11
2023-05-11T10:34:34.994Z,18.32
2023-05-11T10:37:02.765Z,18.23
2023-05-11T10:39:30.688Z,18.19
2023-05-11T10:42:09.960Z,18.14
2023-05-11T10:45:13.860Z,18.25
2023-05-11T10:48:01.630Z,18.29
2023-05-11T10:50:57.550Z,18.39
2023-05-11T10:53:48.840Z,18.57
2023-05-11T10:56:27.309Z,18.56
2023-05-11T10:58:59.875Z,18.55
2023-05-11T11:01:39.939Z,18.31
2023-05-11T11:04:09.648Z,18.01
2023-05-11T11:06:46.368Z,18.28
2023-05-11T11:09:16.046Z,18.49
2023-05-11T11:11:46.619Z,18.55
2023-05-11T11:14:18.061Z,18.79
2023-05-11T11:17:18.865Z,19.14
2023-05-11T11:19:46.169Z,18.97
2023-05-11T11:22:41.856Z,19.22
2023-05-11T11:25:10.042Z,18.76
2023-05-11T11:27:42.912Z,18.87
2023-05-11T11:30:28.816Z,18.77
2023-05-11T11:33:07.915Z,18.79
2023-05-11T11:35:43.696Z,18.94
2023-05-11T11:38:20.289Z,19.02
2023-05-11T11:40:55.055Z,19.37
2023-05-11T11:43:24.886Z,20.22
2023-05-11T11:46:01.986Z,21.13
2023-05-11T11:48:36.168Z,21.54
2023-05-11T11:51:10.869Z,21.36
2023-05-11T11:53:46.613Z,21.00
2023-05-11T11:56:16.323Z,20.66
2023-05-11T11:58:46.274Z,20.70
2023-05-11T12:01:14.592Z,20.66
2023-05-11T12:03:43.888Z,20.52
2023-05-11T12:06:12.352Z,20.86
2023-05-11T12:08:40.679Z,20.18
2023-05-11T12:11:07.982Z,20.55
2023-05-11T12:13:35.720Z,20.69
2023-05-11T12:16:13.232Z,21.55
2023-05-11T12:18:41.279Z,21.79
2023-05-11T12:21:19.450Z,22.66
2023-05-11T12:23:56.347Z,23.29
2023-05-11T12:26:24.808Z,23.56
2023-05-11T12:28:52.620Z,23.76
2023-05-11T12:31:19.555Z,24.17
2023-05-11T12:33:47.918Z,23.48
2023-05-11T12:36:18.919Z,22.82
2023-05-11T12:38:46.460Z,22.45
2023-05-11T12:41:20.188Z,21.53
2023-05-11T12:43:46.969Z,21.53
2023-05-11T12:46:13.802Z,21.32
2023-05-11T12:48:41.078Z,22.04
2023-05-11T12:51:07.800Z,22.26
2023-05-11T12:53:39.971Z,22.21
2023-05-11T12:56:07.333Z,22.32
2023-05-11T12:58:38.554Z,22.42
2023-05-11T13:01:06.970Z,22.68
2023-05-11T13:03:35.482Z,23.37
2023-05-11T13:06:09.590Z,23.84
2023-05-11T13:08:46.792Z,23.67
2023-05-11T13:11:22.600Z,23.57
2023-05-11T13:13:50.129Z,23.59
2023-05-11T13:16:31.999Z,22.79
2023-05-11T13:19:05.661Z,22.43
2023-05-11T13:21:33.641Z,22.47
2023-05-11T13:26:32.271Z,23.09
2023-05-11T13:29:10.030Z,24.81
2023-05-11T13:31:47.969Z,25.38
2023-05-11T13:34:16.637Z,25.34
2023-05-11T13:36:43.715Z,25.15
2023-05-11T13:39:10.803Z,24.38
2023-05-11T13:41:37.439Z,24.27
2023-05-11T13:44:04.444Z,24.96
2023-05-11T13:46:31.111Z,26.67
2023-05-11T13:48:59.744Z,27.37
2023-05-11T13:51:26.364Z,26.89
2023-05-11T13:53:52.897Z,28.05
2023-05-11T13:56:21.353Z,28.78
2023-05-11T13:58:48.606Z,27.39
2023-05-11T14:01:15.286Z,27.84
2023-05-11T14:03:41.867Z,29.80
2023-05-11T14:06:08.569Z,31.54
2023-05-11T14:08:35.177Z,31.11
2023-05-11T14:11:01.778Z,29.99
2023-05-11T14:13:28.460Z,29.28
2023-05-11T14:15:55.108Z,27.82
2023-05-11T14:18:21.811Z,26.28
2023-05-11T14:20:48.541Z,25.33
2023-05-11T14:23:15.160Z,24.47
2023-05-11T14:25:41.908Z,24.33
2023-05-11T14:28:08.785Z,24.41
2023-05-11T14:30:35.427Z,24.34
2023-05-11T14:33:02.148Z,24.19
2023-05-11T14:35:28.741Z,24.08
2023-05-11T14:37:57.037Z,24.17
2023-05-11T14:40:23.740Z,23.70
2023-05-11T14:42:50.379Z,24.37
2023-05-11T14:45:17.138Z,24.35
2023-05-11T14:47:43.868Z,24.25
2023-05-11T14:50:10.618Z,24.82
2023-05-11T14:52:37.264Z,25.21
2023-05-11T14:55:04.002Z,25.61
2023-05-11T14:57:30.627Z,27.24
2023-05-11T15:00:00.097Z,28.30
2023-05-11T15:02:27.803Z,30.11
2023-05-11T15:04:55.192Z,30.89
2023-05-11T15:07:21.798Z,30.65
2023-05-11T15:09:48.535Z,29.91
2023-05-11T15:12:15.122Z,28.38
2023-05-11T15:14:41.686Z,27.60
2023-05-11T15:17:08.708Z,26.76
2023-05-11T15:19:35.339Z,26.73
2023-05-11T15:22:05.730Z,27.93
2023-05-11T15:24:32.547Z,29.36
2023-05-11T15:26:59.457Z,29.79
2023-05-11T15:29:26.164Z,30.40
2023-05-11T15:31:52.814Z,30.24
2023-05-11T15:34:19.522Z,30.74
2023-05-11T15:36:48.724Z,30.85
2023-05-11T15:39:17.222Z,31.83
2023-05-11T15:41:44.252Z,32.82
2023-05-11T15:44:10.961Z,33.14
2023-05-11T15:46:38.722Z,32.19
2023-05-11T15:49:06.336Z,32.87
2023-05-11T15:51:33.167Z,31.11
2023-05-11T15:53:59.909Z,30.66
2023-05-11T15:56:26.658Z,30.07
2023-05-11T15:58:53.213Z,28.59
2023-05-11T16:01:20.400Z,27.46
2023-05-11T16:03:47.165Z,27.11
2023-05-11T16:06:13.900Z,26.43
2023-05-11T16:08:41.679Z,26.00
2023-05-11T16:11:08.283Z,25.46
2023-05-11T16:13:34.912Z,25.18
2023-05-11T16:16:01.570Z,24.74
2023-05-11T16:18:28.814Z,24.03
2023-05-11T16:20:55.669Z,23.89
2023-05-11T16:23:25.668Z,23.50
2023-05-11T16:25:52.661Z,23.08
2023-05-11T16:28:20.620Z,22.80
2023-05-11T16:30:47.690Z,22.44
2023-05-11T16:33:14.636Z,22.54
2023-05-11T16:35:42.894Z,22.43
2023-05-11T16:38:20.283Z,22.05
2023-05-11T16:40:48.194Z,22.34
2023-05-11T16:43:14.869Z,22.07
2023-05-11T16:45:42.749Z,22.56
2023-05-11T16:48:09.417Z,22.57
2023-05-11T16:50:36.029Z,22.67
2023-05-11T16:53:03.617Z,22.44
2023-05-11T16:55:30.809Z,22.47
2023-05-11T16:57:57.505Z,22.45
2023-05-11T17:00:25.350Z,22.44
2023-05-11T17:02:51.985Z,22.33
2023-05-11T17:05:19.497Z,22.28
2023-05-11T17:07:46.967Z,22.31
2023-05-11T17:10:13.582Z,21.82
2023-05-11T17:12:40.538Z,22.15
2023-05-11T17:15:10.296Z,22.11
2023-05-11T17:17:38.324Z,22.16
2023-05-11T17:20:07.768Z,22.21
2023-05-11T17:22:36.078Z,22.28
2023-05-11T17:25:06.440Z,21.94
2023-05-11T17:27:35.582Z,22.17
2023-05-11T17:30:02.326Z,22.05
2023-05-11T17:32:29.620Z,21.91
2023-05-11T17:34:56.583Z,21.89
2023-05-11T17:37:31.240Z,21.48
2023-05-11T17:40:00.017Z,21.44
2023-05-11T17:42:27.067Z,21.53
2023-05-11T17:44:53.804Z,21.44
2023-05-11T17:47:20.542Z,21.27
2023-05-11T17:49:47.261Z,21.18
2023-05-11T17:52:13.801Z,21.16
2023-05-11T17:54:40.378Z,20.99
2023-05-11T17:57:06.998Z,20.82
2023-05-11T17:59:33.881Z,20.70
2023-05-11T18:02:00.697Z,20.81
2023-05-11T18:04:27.347Z,20.48
2023-05-11T18:06:53.973Z,20.50
2023-05-11T18:09:20.536Z,20.56
2023-05-11T18:11:47.233Z,20.36
2023-05-11T18:14:13.839Z,20.41
2023-05-11T18:16:40.434Z,20.47
2023-05-11T18:19:07.271Z,20.09
2023-05-11T18:21:34.915Z,20.26
2023-05-11T18:24:01.534Z,20.18
2023-05-11T18:26:28.200Z,19.96
2023-05-11T18:28:55.329Z,19.58
2023-05-11T18:31:22.297Z,19.82
2023-05-11T18:33:49.668Z,19.78
2023-05-11T18:36:16.308Z,19.85
2023-05-11T18:38:44.051Z,19.62
2023-05-11T18:41:10.983Z,19.63
2023-05-11T18:43:37.740Z,19.25
2023-05-11T18:46:08.762Z,19.25
2023-05-11T18:48:35.664Z,19.22
2023-05-11T18:51:02.353Z,19.20
2023-05-11T18:53:29.109Z,19.16
2023-05-11T18:55:56.313Z,18.85
2023-05-11T18:58:23.711Z,18.32
2023-05-11T19:00:51.544Z,18.86
2023-05-11T19:03:20.782Z,19.08
2023-05-11T19:05:48.904Z,19.06
2023-05-11T19:08:15.604Z,18.98
2023-05-11T19:10:45.318Z,18.93
2023-05-11T19:13:13.231Z,19.03
2023-05-11T19:15:40.445Z,18.59
2023-05-11T19:18:07.188Z,19.01
2023-05-11T19:20:34.705Z,19.02
2023-05-11T19:23:01.957Z,19.02
2023-05-11T19:25:28.650Z,19.00
2023-05-11T19:27:57.239Z,18.61
2023-05-11T19:30:24.830Z,18.79
2023-05-11T19:32:51.981Z,18.70
2023-05-11T19:35:19.194Z,18.25
2023-05-11T19:37:49.036Z,18.48
2023-05-11T19:40:44.744Z,18.45
2023-05-11T19:43:06.924Z,18.30
2023-05-11T19:45:34.281Z,18.01
2023-05-11T19:48:00.900Z,18.34
2023-05-11T19:50:28.088Z,18.26
2023-05-11T19:52:54.996Z,18.12
2023-05-11T19:55:21.728Z,17.88
2023-05-11T19:57:48.570Z,17.62
2023-05-11T20:00:18.279Z,17.80
2023-05-11T20:02:45.388Z,17.96
2023-05-11T20:05:12.118Z,17.55
2023-05-11T20:07:39.151Z,17.84
2023-05-11T20:10:06.353Z,17.62
2023-05-11T20:12:41.491Z,17.67
2023-05-11T20:15:08.949Z,17.52
2023-05-11T20:17:36.254Z,17.49
2023-05-11T20:20:03.937Z,17.03
2023-05-11T20:22:31.535Z,17.02
2023-05-11T20:24:58.121Z,17.11
2023-05-11T20:27:24.747Z,16.99
2023-05-11T20:29:51.447Z,17.13
2023-05-11T20:32:18.653Z,17.15
2023-05-11T20:34:45.196Z,17.01
2023-05-11T20:37:12.158Z,16.86
2023-05-11T20:39:38.791Z,16.91
2023-05-11T20:42:05.436Z,16.62
2023-05-11T20:44:32.242Z,16.77
2023-05-11T20:46:58.927Z,16.86
2023-05-11T20:49:37.767Z,16.61
2023-05-11T20:52:06.124Z,16.89
2023-05-11T20:54:35.124Z,16.41
2023-05-11T20:57:02.735Z,16.72
2023-05-11T21:02:01.328Z,16.81
2023-05-11T21:04:29.988Z,16.89
2023-05-11T21:06:56.603Z,16.59
2023-05-11T21:09:23.132Z,17.00
2023-05-11T21:11:49.735Z,16.91
2023-05-11T21:14:16.549Z,16.95
2023-05-11T21:16:43.138Z,16.84
2023-05-11T21:19:09.844Z,16.84
2023-05-11T21:21:36.578Z,16.75
2023-05-11T21:24:04.156Z,16.98
2023-05-11T21:26:30.812Z,16.81
2023-05-11T21:28:57.698Z,16.77
2023-05-11T21:31:24.555Z,16.54
2023-05-11T21:33:53.104Z,16.92
2023-05-11T21:36:19.760Z,16.52
2023-05-11T21:38:49.552Z,16.76
2023-05-11T21:41:18.488Z,16.73
2023-05-11T21:43:45.088Z,16.80
2023-05-11T21:46:14.703Z,16.73
2023-05-11T21:48:41.747Z,16.40
2023-05-11T21:51:09.229Z,16.28
2023-05-11T21:53:35.809Z,16.44
2023-05-11T21:56:02.402Z,16.45
2023-05-11T21:58:29.235Z,16.40
2023-05-11T22:00:57.158Z,16.31
2023-05-11T22:03:24.122Z,16.51
2023-05-11T22:05:51.149Z,16.55
2023-05-11T22:08:17.726Z,16.47
2023-05-11T22:10:44.303Z,16.47
2023-05-11T22:13:10.947Z,16.12
2023-05-11T22:15:37.635Z,16.45
2023-05-11T22:18:05.187Z,16.37
2023-05-11T22:20:32.063Z,16.13
2023-05-11T22:22:59.551Z,16.28
2023-05-11T22:25:26.734Z,16.32
2023-05-11T22:27:53.440Z,15.74
2023-05-11T22:30:20.504Z,16.19
2023-05-11T22:32:47.489Z,15.74
2023-05-11T22:35:14.233Z,16.07
2023-05-11T22:37:41.279Z,16.09
2023-05-11T22:40:08.907Z,16.02
2023-05-11T22:42:35.704Z,15.73
2023-05-11T22:45:02.357Z,15.90
2023-05-11T22:47:29.557Z,15.81
2023-05-11T22:49:56.452Z,15.79
2023-05-11T22:52:23.149Z,15.71
2023-05-11T22:54:58.083Z,15.71
2023-05-11T22:57:26.381Z,15.70
2023-05-11T22:59:52.961Z,15.64
2023-05-11T23:02:19.733Z,15.48
2023-05-11T23:04:52.004Z,15.51
2023-05-11T23:07:19.573Z,15.38
2023-05-11T23:09:46.410Z,15.17
2023-05-11T23:12:13.649Z,15.17
2023-05-11T23:14:40.284Z,14.96
2023-05-11T23:17:06.923Z,15.14
2023-05-11T23:19:33.874Z,14.87
2023-05-11T23:22:00.956Z,14.99
2023-05-11T23:24:29.025Z,14.70
2023-05-11T23:26:55.680Z,15.06
2023-05-11T23:29:22.307Z,14.99
2023-05-11T23:31:49.130Z,14.84
2023-05-11T23:34:15.964Z,14.70
2023-05-11T23:36:42.676Z,14.88
2023-05-11T23:39:09.762Z,14.80
2023-05-11T23:41:36.572Z,14.65
2023-05-11T23:44:03.409Z,14.74
2023-05-11T23:46:30.160Z,14.81
2023-05-11T23:48:56.778Z,14.59
2023-05-11T23:51:23.328Z,14.79
2023-05-11T23:53:50.050Z,14.80
2023-05-11T23:56:16.682Z,14.91
2023-05-11T23:58:45.899Z,14.97
